Time;durP1;ratioP1;P1;durP2;ratioP2;P2;SDS_P1;SDS_P2;PMS_P1;PMS_P2;Temp;Humidity;BMP_temperature;BMP_pressure;BME280_temperature;BME280_humidity;BME280_pressure;Samples;Min_cycle;Max_cycle;Signal;HPM_P1;HPM_P2
2022/03/17 00:01:17;;;;;;;0.00;0.00;;;7.90;99.90;;;;;;5094916;28;20251;-80
2022/03/17 00:03:42;;;;;;;0.00;0.00;;;7.90;99.90;;;;;;5103646;28;20059;-73
2022/03/17 00:06:11;;;;;;;0.00;0.00;;;7.90;99.90;;;;;;5104155;28;20039;-71
2022/03/17 00:08:37;;;;;;;0.00;0.00;;;7.90;99.90;;;;;;5101364;28;20032;-77
2022/03/17 00:11:03;;;;;;;0.00;0.00;;;7.90;99.90;;;;;;5100426;28;20103;-75
2022/03/17 00:13:30;;;;;;;0.00;0.00;;;7.90;99.90;;;;;;5104210;28;20199;-77
2022/03/17 00:15:57;;;;;;;0.00;0.00;;;7.80;99.90;;;;;;5093080;28;20028;-77
2022/03/17 00:18:22;;;;;;;0.00;0.00;;;7.80;99.90;;;;;;5101113;28;20040;-76
2022/03/17 00:20:48;;;;;;;0.47;0.47;;;7.70;99.90;;;;;;5101604;28;20055;-80
2022/03/17 00:23:14;;;;;;;0.00;0.00;;;7.70;99.90;;;;;;5099090;28;20094;-78
2022/03/17 00:25:40;;;;;;;0.00;0.00;;;7.70;99.90;;;;;;5102573;28;20024;-76
2022/03/17 00:28:06;;;;;;;0.00;0.00;;;7.60;99.90;;;;;;5102737;28;20035;-73
2022/03/17 00:30:32;;;;;;;0.00;0.00;;;7.60;99.90;;;;;;5102175;28;20015;-73
2022/03/17 00:32:57;;;;;;;0.00;0.00;;;7.50;99.90;;;;;;5101232;28;20034;-76
2022/03/17 00:35:35;;;;;;;0.08;0.08;;;7.50;99.90;;;;;;5101182;28;20377;-78
2022/03/17 00:38:09;;;;;;;0.00;0.00;;;7.50;99.90;;;;;;5090707;28;20166;-72
2022/03/17 00:40:37;;;;;;;0.00;0.00;;;7.40;99.90;;;;;;5091401;28;20307;-72
2022/03/17 00:43:08;;;;;;;0.00;0.00;;;7.40;99.90;;;;;;5101667;28;20073;-73
2022/03/17 00:45:35;;;;;;;0.00;0.00;;;7.40;99.90;;;;;;5081707;28;20331;-76
2022/03/17 00:48:01;;;;;;;0.00;0.00;;;7.30;99.90;;;;;;5091279;28;20043;-76
2022/03/17 00:50:27;;;;;;;0.00;0.00;;;7.30;99.90;;;;;;5100776;28;20024;-76
2022/03/17 00:52:53;;;;;;;0.00;0.00;;;7.30;99.90;;;;;;5104807;28;20039;-75
2022/03/17 00:55:20;;;;;;;0.00;0.00;;;7.30;99.90;;;;;;5084258;28;20237;-77
2022/03/17 00:57:47;;;;;;;0.00;0.00;;;7.30;99.90;;;;;;5099504;28;20047;-72
2022/03/17 01:00:14;;;;;;;0.00;0.00;;;7.30;99.90;;;;;;5092452;28;20034;-75
2022/03/17 01:02:44;;;;;;;0.20;0.20;;;7.30;99.90;;;;;;5101679;28;20051;-76
2022/03/17 01:05:10;;;;;;;0.00;0.00;;;7.30;99.90;;;;;;5080643;28;20039;-77
2022/03/17 01:07:37;;;;;;;0.00;0.00;;;7.30;99.90;;;;;;5092341;28;20234;-72
2022/03/17 01:10:08;;;;;;;0.00;0.00;;;7.30;99.90;;;;;;5099384;28;20020;-69
2022/03/17 01:12:34;;;;;;;0.00;0.00;;;7.20;99.90;;;;;;5103336;28;20024;-74
2022/03/17 01:15:01;;;;;;;0.00;0.00;;;7.30;99.90;;;;;;5098725;28;20030;-74
2022/03/17 01:17:27;;;;;;;0.00;0.00;;;7.30;99.90;;;;;;5101676;28;20102;-75
2022/03/17 01:19:53;;;;;;;0.00;0.00;;;7.20;99.90;;;;;;5080857;28;20176;-72
2022/03/17 01:22:21;;;;;;;0.10;0.10;;;7.20;99.90;;;;;;5100849;28;20036;-80
2022/03/17 01:24:48;;;;;;;0.00;0.00;;;7.20;99.90;;;;;;5102637;28;20102;-73
2022/03/17 01:27:13;;;;;;;0.00;0.00;;;7.20;99.90;;;;;;5102578;28;20035;-80
2022/03/17 01:29:41;;;;;;;0.00;0.00;;;7.10;99.90;;;;;;5089076;28;20235;-81
2022/03/17 01:32:07;;;;;;;0.00;0.00;;;7.00;99.90;;;;;;5088948;28;20024;-79
2022/03/17 01:34:33;;;;;;;0.00;0.00;;;7.00;99.90;;;;;;5096853;28;20072;-73
2022/03/17 01:37:00;;;;;;;0.00;0.00;;;7.00;99.90;;;;;;5079053;28;20055;-79
2022/03/17 01:39:26;;;;;;;0.00;0.00;;;6.90;99.90;;;;;;5097442;28;20323;-77
2022/03/17 01:41:55;;;;;;;0.00;0.00;;;6.90;99.90;;;;;;5096349;28;20061;-71
2022/03/17 01:44:21;;;;;;;0.00;0.00;;;6.90;99.90;;;;;;5098627;28;20032;-73
2022/03/17 01:49:31;;;;;;;0.00;0.00;;;6.90;99.90;;;;;;5098971;28;20022;-73
2022/03/17 01:51:56;;;;;;;0.00;0.00;;;6.90;99.90;;;;;;5088962;28;20028;-79
2022/03/17 01:54:24;;;;;;;0.00;0.00;;;6.90;99.90;;;;;;5096275;28;20098;-73
2022/03/17 01:56:52;;;;;;;0.00;0.00;;;6.90;99.90;;;;;;5096068;28;20052;-79
2022/03/17 01:59:18;;;;;;;0.00;0.00;;;6.90;99.90;;;;;;5089340;28;20032;-79
2022/03/17 02:01:45;;;;;;;0.00;0.00;;;6.80;99.90;;;;;;5098008;28;20040;-72
2022/03/17 02:04:11;;;;;;;0.00;0.00;;;6.80;99.90;;;;;;5071024;28;20096;-73
2022/03/17 02:06:37;;;;;;;0.00;0.00;;;6.70;99.90;;;;;;5077061;28;20050;-78
2022/03/17 02:09:03;;;;;;;0.00;0.00;;;6.70;99.90;;;;;;5078153;28;20400;-72
2022/03/17 02:14:20;;;;;;;0.00;0.00;;;6.70;99.90;;;;;;5098544;28;20092;-76
2022/03/17 02:16:46;;;;;;;0.00;0.00;;;6.60;99.90;;;;;;5098150;28;20219;-71
2022/03/17 02:19:12;;;;;;;0.00;0.00;;;6.60;99.90;;;;;;5096532;28;20119;-71
2022/03/17 02:21:39;;;;;;;0.00;0.00;;;6.60;99.90;;;;;;5089055;28;20019;-72
2022/03/17 02:26:50;;;;;;;0.00;0.00;;;6.50;99.90;;;;;;5097836;28;20226;-75
2022/03/17 02:29:16;;;;;;;0.00;0.00;;;6.50;99.90;;;;;;5097588;28;20070;-77
2022/03/17 02:31:42;;;;;;;0.00;0.00;;;6.50;99.90;;;;;;5078456;28;20943;-73
2022/03/17 02:34:07;;;;;;;0.00;0.00;;;6.50;99.90;;;;;;5096514;28;20023;-74
2022/03/17 02:36:33;;;;;;;0.00;0.00;;;6.50;99.90;;;;;;5096735;28;20032;-74
2022/03/17 02:38:58;;;;;;;0.00;0.00;;;6.50;99.90;;;;;;5096197;28;20066;-81
2022/03/17 02:41:24;;;;;;;0.00;0.00;;;6.40;99.90;;;;;;5096765;28;20039;-80
2022/03/17 02:43:51;;;;;;;0.00;0.00;;;6.40;99.90;;;;;;5080994;28;20019;-77
2022/03/17 02:46:18;;;;;;;0.00;0.00;;;6.40;99.90;;;;;;5094146;28;20192;-80
2022/03/17 02:48:43;;;;;;;0.00;0.00;;;6.40;99.90;;;;;;5083116;28;20027;-74
2022/03/17 02:51:10;;;;;;;0.00;0.00;;;6.30;99.90;;;;;;5065755;28;20094;-73
2022/03/17 02:53:36;;;;;;;0.00;0.00;;;6.30;99.90;;;;;;5049556;28;20020;-72
2022/03/17 02:56:01;;;;;;;0.00;0.00;;;6.30;99.90;;;;;;5094904;28;20063;-72
2022/03/17 02:58:27;;;;;;;0.00;0.00;;;6.30;99.90;;;;;;5096929;28;20032;-76
2022/03/17 03:00:53;;;;;;;0.00;0.00;;;6.30;99.90;;;;;;5095702;28;20032;-76
2022/03/17 03:03:19;;;;;;;0.00;0.00;;;6.30;99.90;;;;;;5096685;28;20031;-76
2022/03/17 03:05:44;;;;;;;0.00;0.00;;;6.30;99.90;;;;;;5094386;28;20323;-71
2022/03/17 03:08:10;;;;;;;0.00;0.00;;;6.30;99.90;;;;;;5094193;28;20311;-77
2022/03/17 03:10:36;;;;;;;0.10;0.10;;;6.30;99.90;;;;;;5095561;28;20016;-73
2022/03/17 03:13:02;;;;;;;0.00;0.00;;;6.30;99.90;;;;;;5094166;28;20379;-72
2022/03/17 03:15:29;;;;;;;0.00;0.00;;;6.20;99.90;;;;;;5096665;28;20611;-74
2022/03/17 03:17:55;;;;;;;0.43;0.43;;;6.20;99.90;;;;;;5094723;28;20571;-72
2022/03/17 03:20:22;;;;;;;0.00;0.00;;;6.20;99.90;;;;;;5094578;28;20047;-72
2022/03/17 03:22:48;;;;;;;0.00;0.00;;;6.20;99.90;;;;;;5093786;28;20036;-72
2022/03/17 03:25:13;;;;;;;3.72;3.60;;;6.10;99.90;;;;;;5096150;28;20042;-78
2022/03/17 03:27:40;;;;;;;0.00;0.00;;;6.10;99.90;;;;;;5096840;28;20024;-76
2022/03/17 03:30:11;;;;;;;0.00;0.00;;;6.10;99.90;;;;;;5102671;28;20106;-72
2022/03/17 03:32:37;;;;;;;0.00;0.00;;;6.00;99.90;;;;;;5122885;28;20295;-78
2022/03/17 03:37:22;;;;;;;0.00;0.00;;;6.00;99.90;;;;;;5121677;28;20148;-74
2022/03/17 03:37:50;;;;;;;0.00;0.00;;;6.00;99.90;;;;;;5121845;28;20063;-79
2022/03/17 03:40:16;;;;;;;0.00;0.00;;;6.00;99.90;;;;;;5103255;28;20050;-80
2022/03/17 03:42:41;;;;;;;0.00;0.00;;;6.00;99.90;;;;;;5102929;28;20016;-78
2022/03/17 03:45:07;;;;;;;0.00;0.00;;;6.00;99.90;;;;;;5103944;28;20397;-77
2022/03/17 03:47:33;;;;;;;0.00;0.00;;;6.00;99.90;;;;;;5121540;28;20084;-72
2022/03/17 03:49:59;;;;;;;0.00;0.00;;;6.00;99.90;;;;;;5103790;28;20023;-79
2022/03/17 03:52:25;;;;;;;0.00;0.00;;;5.90;99.90;;;;;;5120520;28;20118;-79
2022/03/17 03:54:50;;;;;;;0.00;0.00;;;5.90;99.90;;;;;;5102479;28;20028;-79
2022/03/17 03:57:16;;;;;;;0.00;0.00;;;5.90;99.90;;;;;;5121505;28;20302;-85
2022/03/17 03:59:42;;;;;;;0.00;0.00;;;5.90;99.90;;;;;;5121716;28;20337;-85
2022/03/17 04:02:09;;;;;;;0.00;0.00;;;5.90;99.90;;;;;;5115377;28;20019;-75
2022/03/17 04:04:36;;;;;;;0.00;0.00;;;5.90;99.90;;;;;;5102613;28;20023;-81
2022/03/17 04:07:05;;;;;;;0.00;0.00;;;5.90;99.90;;;;;;5101165;28;20064;-81
2022/03/17 04:09:34;;;;;;;0.00;0.00;;;5.80;99.90;;;;;;5122375;28;20055;-79
2022/03/17 04:12:01;;;;;;;0.00;0.00;;;5.80;99.90;;;;;;5120109;28;20174;-79
2022/03/17 04:14:27;;;;;;;0.00;0.00;;;5.80;99.90;;;;;;5120521;28;20032;-79
2022/03/17 04:16:53;;;;;;;0.00;0.00;;;5.80;99.90;;;;;;5119330;28;20622;-82
2022/03/17 04:19:19;;;;;;;0.00;0.00;;;5.80;99.90;;;;;;5103435;28;20090;-82
2022/03/17 04:21:46;;;;;;;0.00;0.00;;;5.70;99.90;;;;;;5103729;28;20080;-82
2022/03/17 04:24:13;;;;;;;0.00;0.00;;;5.70;99.90;;;;;;5121140;28;20040;-82
2022/03/17 04:26:39;;;;;;;0.00;0.00;;;5.70;99.90;;;;;;5102771;28;20020;-75
2022/03/17 04:29:06;;;;;;;0.00;0.00;;;5.70;99.90;;;;;;5121591;28;20121;-77
2022/03/17 04:31:33;;;;;;;0.00;0.00;;;5.70;99.90;;;;;;5122026;28;20011;-78
2022/03/17 04:33:58;;;;;;;0.00;0.00;;;5.70;99.90;;;;;;5120204;28;20031;-76
2022/03/17 04:36:25;;;;;;;0.00;0.00;;;5.60;99.90;;;;;;5121428;28;20090;-79
2022/03/17 04:38:51;;;;;;;0.00;0.00;;;5.60;99.90;;;;;;5120483;28;20027;-71
2022/03/17 04:41:20;;;;;;;0.00;0.00;;;5.60;99.90;;;;;;5120858;28;20015;-76
2022/03/17 04:43:46;;;;;;;0.00;0.00;;;5.70;99.90;;;;;;5121213;28;20027;-76
2022/03/17 04:46:12;;;;;;;0.00;0.00;;;5.60;99.90;;;;;;5119567;28;20098;-75
2022/03/17 04:48:38;;;;;;;0.00;0.00;;;5.60;99.90;;;;;;5103071;28;20039;-72
2022/03/17 04:51:05;;;;;;;0.00;0.00;;;5.50;99.90;;;;;;5085730;28;20299;-72
2022/03/17 04:53:32;;;;;;;0.00;0.00;;;5.50;99.90;;;;;;5103473;28;20128;-76
2022/03/17 04:56:00;;;;;;;0.00;0.00;;;5.50;99.90;;;;;;5119636;28;20361;-73
2022/03/17 04:58:27;;;;;;;1.30;0.65;;;5.50;99.90;;;;;;5121042;28;20031;-77
2022/03/17 05:00:53;;;;;;;0.00;0.00;;;5.40;99.90;;;;;;5120806;28;20354;-71
2022/03/17 05:03:20;;;;;;;0.00;0.00;;;5.50;99.90;;;;;;5121141;28;20317;-76
2022/03/17 05:05:46;;;;;;;0.00;0.00;;;5.40;99.90;;;;;;5120908;28;20031;-76
2022/03/17 05:08:12;;;;;;;0.00;0.00;;;5.50;99.90;;;;;;5119944;28;20019;-75
2022/03/17 05:10:38;;;;;;;0.00;0.00;;;5.50;99.90;;;;;;5102463;28;20043;-72
2022/03/17 05:13:05;;;;;;;0.00;0.00;;;5.40;99.90;;;;;;5120252;28;20035;-71
2022/03/17 05:15:32;;;;;;;0.00;0.00;;;5.50;99.90;;;;;;5121449;28;20023;-77
2022/03/17 05:17:58;;;;;;;0.00;0.00;;;5.50;99.90;;;;;;5085294;28;20498;-81
2022/03/17 05:20:24;;;;;;;0.00;0.00;;;5.50;99.90;;;;;;5098651;28;20038;-78
2022/03/17 05:22:51;;;;;;;0.30;0.30;;;5.50;99.90;;;;;;5081749;28;20054;-75
2022/03/17 05:25:17;;;;;;;0.00;0.00;;;5.50;99.90;;;;;;5088310;28;20094;-74
2022/03/17 05:27:44;;;;;;;0.00;0.00;;;5.60;99.90;;;;;;5102169;28;20024;-77
2022/03/17 05:30:13;;;;;;;0.00;0.00;;;5.60;99.90;;;;;;5098705;28;20028;-82
2022/03/17 05:32:45;;;;;;;0.00;0.00;;;5.60;99.90;;;;;;5100692;28;20020;-77
2022/03/17 05:35:12;;;;;;;0.00;0.00;;;5.60;99.90;;;;;;5079400;28;20227;-73
2022/03/17 05:37:39;;;;;;;0.10;0.10;;;5.60;99.90;;;;;;5090624;28;20057;-73
2022/03/17 05:40:13;;;;;;;0.00;0.00;;;5.60;99.90;;;;;;5077925;28;20291;-77
2022/03/17 05:42:43;;;;;;;0.00;0.00;;;5.60;99.90;;;;;;5098428;28;20330;-74
2022/03/17 05:45:10;;;;;;;0.00;0.00;;;5.60;99.90;;;;;;5089949;28;20031;-77
2022/03/17 05:47:44;;;;;;;0.13;0.13;;;5.60;99.90;;;;;;5096767;28;20059;-70
2022/03/17 05:50:12;;;;;;;0.00;0.00;;;5.60;99.90;;;;;;5098847;28;20012;-75
2022/03/17 05:52:44;;;;;;;;;;;5.70;99.90;;;;;;5100739;28;20016;-72
2022/03/17 05:55:15;;;;;;;0.00;0.00;;;5.70;99.90;;;;;;5096194;28;20014;-73
2022/03/17 05:57:42;;;;;;;0.00;0.00;;;5.70;99.90;;;;;;5079601;28;20055;-74
2022/03/17 06:00:10;;;;;;;0.00;0.00;;;5.80;99.90;;;;;;5096714;28;20019;-77
2022/03/17 06:02:37;;;;;;;0.00;0.00;;;5.80;99.90;;;;;;5102207;28;20059;-73
2022/03/17 06:05:05;;;;;;;0.00;0.00;;;5.80;99.90;;;;;;5081419;28;20031;-72
2022/03/17 06:07:38;;;;;;;0.00;0.00;;;5.80;99.90;;;;;;5103200;28;20327;-81
2022/03/17 06:10:07;;;;;;;0.00;0.00;;;5.90;99.90;;;;;;5118462;28;20027;-73
2022/03/17 06:12:33;;;;;;;0.10;0.10;;;5.90;99.90;;;;;;5120636;28;20034;-74
2022/03/17 06:15:00;;;;;;;0.00;0.00;;;5.90;99.90;;;;;;5101569;28;20055;-76
2022/03/17 06:17:43;;;;;;;0.00;0.00;;;6.00;99.90;;;;;;5119669;28;20514;-73
2022/03/17 06:20:13;;;;;;;0.00;0.00;;;6.00;99.90;;;;;;5099569;28;20023;-75
2022/03/17 06:22:41;;;;;;;0.00;0.00;;;6.10;99.90;;;;;;5119145;28;20337;-74
2022/03/17 06:25:08;;;;;;;0.00;0.00;;;6.10;99.90;;;;;;5101161;28;20047;-74
2022/03/17 06:27:34;;;;;;;0.00;0.00;;;6.20;99.90;;;;;;5103375;28;20307;-76
2022/03/17 06:30:09;;;;;;;1.45;0.47;;;6.20;99.90;;;;;;5100872;28;20012;-73
2022/03/17 06:32:35;;;;;;;0.00;0.00;;;6.30;99.90;;;;;;5117259;28;20022;-71
2022/03/17 06:35:01;;;;;;;0.00;0.00;;;6.30;99.90;;;;;;5118179;28;20069;-76
2022/03/17 06:37:27;;;;;;;0.00;0.00;;;6.30;99.90;;;;;;5100854;28;20031;-75
2022/03/17 06:39:56;;;;;;;0.00;0.00;;;6.40;99.90;;;;;;5099719;28;20047;-78
2022/03/17 06:42:21;;;;;;;;;;;6.30;99.90;;;;;;5118810;28;20024;-71
2022/03/17 06:44:48;;;;;;;0.00;0.00;;;6.40;99.90;;;;;;5117786;28;19966;-74
2022/03/17 06:47:13;;;;;;;0.00;0.00;;;6.40;99.90;;;;;;5118978;28;20035;-73
2022/03/17 06:49:39;;;;;;;0.00;0.00;;;6.40;99.90;;;;;;5117141;27;20019;-75
2022/03/17 06:52:05;;;;;;;0.00;0.00;;;6.40;99.90;;;;;;5118303;28;20064;-72
2022/03/17 06:54:31;;;;;;;0.00;0.00;;;6.50;99.90;;;;;;5119360;28;20019;-75
2022/03/17 06:56:57;;;;;;;0.22;0.20;;;6.50;99.90;;;;;;5083592;28;20159;-71
2022/03/17 06:59:22;;;;;;;0.00;0.00;;;6.50;99.90;;;;;;5083916;28;20017;-74
2022/03/17 07:01:48;;;;;;;0.00;0.00;;;6.60;99.90;;;;;;5070443;28;20020;-75
2022/03/17 07:04:14;;;;;;;0.10;0.10;;;6.60;99.90;;;;;;5086510;28;20027;-72
2022/03/17 07:06:39;;;;;;;0.10;0.10;;;6.70;99.90;;;;;;5085719;28;20036;-74
2022/03/17 07:09:05;;;;;;;0.00;0.00;;;6.70;99.90;;;;;;5080177;28;20061;-73
2022/03/17 07:11:31;;;;;;;0.00;0.00;;;6.70;99.90;;;;;;5077800;28;20031;-78
2022/03/17 07:13:56;;;;;;;0.00;0.00;;;6.80;99.90;;;;;;5076721;28;20270;-72
2022/03/17 07:16:22;;;;;;;0.00;0.00;;;6.80;99.90;;;;;;5081487;28;20095;-77
2022/03/17 07:19:07;;;;;;;0.00;0.00;;;6.90;99.90;;;;;;5069230;28;20259;-74
2022/03/17 07:21:33;;;;;;;1.00;0.95;;;6.90;99.90;;;;;;5079892;28;20359;-78
2022/03/17 07:23:59;;;;;;;0.00;0.00;;;7.00;99.90;;;;;;5077331;28;20029;-76
2022/03/17 07:26:26;;;;;;;0.00;0.00;;;7.00;99.90;;;;;;5077766;28;21080;-77
2022/03/17 07:28:54;;;;;;;0.00;0.00;;;7.00;99.90;;;;;;5077661;28;20295;-77
2022/03/17 07:31:20;;;;;;;0.00;0.00;;;7.10;99.90;;;;;;5076642;28;20023;-76
2022/03/17 07:33:48;;;;;;;0.68;0.68;;;7.10;99.90;;;;;;5080363;28;20028;-80
2022/03/17 07:36:14;;;;;;;0.00;0.00;;;7.20;99.90;;;;;;5079463;28;20024;-77
2022/03/17 07:38:40;;;;;;;0.00;0.00;;;7.20;99.90;;;;;;5078502;28;20044;-77
2022/03/17 07:41:05;;;;;;;0.00;0.00;;;7.30;99.90;;;;;;5077224;28;20035;-75
2022/03/17 07:43:31;;;;;;;0.00;0.00;;;7.40;99.90;;;;;;5079279;28;20040;-77
2022/03/17 07:45:57;;;;;;;4.63;4.20;;;7.40;99.90;;;;;;5078822;28;20218;-77
2022/03/17 07:48:22;;;;;;;0.00;0.00;;;7.50;99.90;;;;;;5077205;28;20181;-79
2022/03/17 07:50:50;;;;;;;0.00;0.00;;;7.50;99.90;;;;;;5076995;28;20203;-77
2022/03/17 07:53:16;;;;;;;0.38;0.38;;;7.50;99.90;;;;;;5077070;28;20016;-78
2022/03/17 07:55:43;;;;;;;0.00;0.00;;;7.60;99.90;;;;;;5098357;28;20334;-75
2022/03/17 07:58:10;;;;;;;0.00;0.00;;;7.60;99.90;;;;;;5118957;28;20099;-75
2022/03/17 08:00:37;;;;;;;0.00;0.00;;;7.60;99.90;;;;;;5100088;28;20027;-73
2022/03/17 08:03:06;;;;;;;0.00;0.00;;;7.70;99.90;;;;;;5099953;28;20024;-77
2022/03/17 08:05:32;;;;;;;0.00;0.00;;;7.80;99.90;;;;;;5098399;28;20043;-80
2022/03/17 08:08:00;;;;;;;0.00;0.00;;;7.80;99.90;;;;;;5100300;28;20024;-78
2022/03/17 08:10:28;;;;;;;0.00;0.00;;;7.90;99.90;;;;;;5100163;28;20023;-76
2022/03/17 08:12:54;;;;;;;0.00;0.00;;;7.90;99.90;;;;;;5117188;28;20081;-78
2022/03/17 08:15:20;;;;;;;0.10;0.10;;;7.90;99.90;;;;;;5099741;28;20046;-77
2022/03/17 08:17:46;;;;;;;0.00;0.00;;;8.00;99.90;;;;;;5102844;28;20104;-78
2022/03/17 08:20:12;;;;;;;0.00;0.00;;;8.00;99.90;;;;;;5120905;28;20027;-77
2022/03/17 08:22:37;;;;;;;0.10;0.10;;;8.00;99.90;;;;;;5120447;28;20023;-72
2022/03/17 08:25:03;;;;;;;0.00;0.00;;;8.10;99.90;;;;;;5121939;28;20020;-74
2022/03/17 08:27:30;;;;;;;0.00;0.00;;;8.20;99.90;;;;;;5121468;28;20023;-76
2022/03/17 08:29:56;;;;;;;0.75;0.45;;;8.30;99.90;;;;;;5104036;28;20095;-76
2022/03/17 08:32:21;;;;;;;0.10;0.10;;;8.30;99.90;;;;;;5102146;28;20018;-76
2022/03/17 08:34:47;;;;;;;0.00;0.00;;;8.30;99.90;;;;;;5102594;28;20355;-75
2022/03/17 08:37:13;;;;;;;0.00;0.00;;;8.40;99.90;;;;;;5102903;28;20027;-76
2022/03/17 08:39:38;;;;;;;0.00;0.00;;;8.40;99.90;;;;;;5103975;28;20310;-76
2022/03/17 08:42:05;;;;;;;0.00;0.00;;;8.50;99.90;;;;;;5121620;28;20015;-73
2022/03/17 08:44:30;;;;;;;0.28;0.28;;;8.50;99.90;;;;;;5105824;28;20038;-75
2022/03/17 08:49:40;;;;;;;0.00;0.00;;;8.70;99.90;;;;;;5121560;28;20092;-76
2022/03/17 08:52:07;;;;;;;0.00;0.00;;;8.70;99.90;;;;;;5121942;28;20019;-75
2022/03/17 08:54:35;;;;;;;0.00;0.00;;;8.80;99.90;;;;;;5109580;28;20019;-74
2022/03/17 08:57:03;;;;;;;0.00;0.00;;;8.90;99.90;;;;;;5122153;28;20144;-72
2022/03/17 08:59:34;;;;;;;0.00;0.00;;;8.90;99.90;;;;;;5122722;28;20015;-76
2022/03/17 09:02:05;;;;;;;0.00;0.00;;;9.00;99.90;;;;;;5122588;28;20016;-78
2022/03/17 09:04:31;;;;;;;0.00;0.00;;;9.00;99.90;;;;;;5122643;28;20370;-75
2022/03/17 09:06:59;;;;;;;0.00;0.00;;;9.10;99.90;;;;;;5121659;28;20035;-76
2022/03/17 09:09:30;;;;;;;0.00;0.00;;;9.20;99.90;;;;;;5121472;28;20019;-75
2022/03/17 09:11:56;;;;;;;0.00;0.00;;;9.20;99.90;;;;;;5103586;28;20196;-74
2022/03/17 09:14:22;;;;;;;0.00;0.00;;;9.20;99.90;;;;;;5119310;28;20183;-75
2022/03/17 09:16:48;;;;;;;0.00;0.00;;;9.30;99.90;;;;;;5120913;28;20054;-77
2022/03/17 09:19:15;;;;;;;0.00;0.00;;;9.40;99.90;;;;;;5121365;28;20088;-73
2022/03/17 09:21:41;;;;;;;0.10;0.10;;;9.40;99.90;;;;;;5121597;28;20023;-73
2022/03/17 09:24:07;;;;;;;0.00;0.00;;;9.50;99.90;;;;;;5102745;28;20031;-73
2022/03/17 09:26:34;;;;;;;0.15;0.15;;;9.60;99.90;;;;;;5120704;28;20047;-73
2022/03/17 09:29:18;;;;;;;0.00;0.00;;;9.60;99.90;;;;;;5121161;28;20035;-72
2022/03/17 09:31:44;;;;;;;0.00;0.00;;;9.70;99.90;;;;;;5112743;28;20019;-73
2022/03/17 09:34:10;;;;;;;2.17;0.93;;;9.80;99.90;;;;;;5101464;28;20334;-72
2022/03/17 09:36:36;;;;;;;0.00;0.00;;;9.90;99.90;;;;;;5103379;28;20034;-74
2022/03/17 09:41:46;;;;;;;0.00;0.00;;;10.10;99.90;;;;;;5121636;28;20206;-73
2022/03/17 09:44:14;;;;;;;0.00;0.00;;;10.10;99.90;;;;;;5102475;28;20015;-74
2022/03/17 09:46:42;;;;;;;0.10;0.10;;;10.20;99.90;;;;;;5103324;28;20402;-74
2022/03/17 09:49:08;;;;;;;0.00;0.00;;;10.30;99.90;;;;;;5100619;28;20072;-74
2022/03/17 09:51:34;;;;;;;1.02;0.63;;;10.30;99.90;;;;;;5121899;28;20258;-73
2022/03/17 09:54:00;;;;;;;0.15;0.15;;;10.30;99.90;;;;;;5121238;28;20322;-76
2022/03/17 09:56:27;;;;;;;0.35;0.10;;;10.40;99.90;;;;;;5102807;28;20047;-76
2022/03/17 09:58:54;;;;;;;0.00;0.00;;;10.40;99.90;;;;;;5120491;28;20028;-73
2022/03/17 10:01:22;;;;;;;0.00;0.00;;;10.60;99.90;;;;;;5119889;28;20019;-76
2022/03/17 10:03:48;;;;;;;0.00;0.00;;;10.60;99.90;;;;;;5103322;28;20176;-78
2022/03/17 10:06:15;;;;;;;0.35;0.13;;;10.70;99.90;;;;;;5124312;28;20128;-78
2022/03/17 10:08:48;;;;;;;0.00;0.00;;;10.70;99.90;;;;;;5120831;28;20134;-78
2022/03/17 10:11:15;;;;;;;0.32;0.32;;;10.80;99.90;;;;;;5120036;28;20086;-77
2022/03/17 10:13:46;;;;;;;0.38;0.38;;;10.60;99.90;;;;;;5102928;28;20307;-74
2022/03/17 10:16:17;;;;;;;0.00;0.00;;;10.60;99.90;;;;;;5119963;28;20067;-74
2022/03/17 10:18:43;;;;;;;0.00;0.00;;;10.60;99.90;;;;;;5118548;28;20020;-73
2022/03/17 10:21:24;;;;;;;0.00;0.00;;;10.60;99.90;;;;;;5119902;28;20019;-74
2022/03/17 10:23:55;;;;;;;0.52;0.52;;;10.60;99.90;;;;;;5101674;28;20016;-74
2022/03/17 10:26:33;;;;;;;0.00;0.00;;;10.60;99.90;;;;;;5119093;28;20088;-74
2022/03/17 10:29:17;;;;;;;0.00;0.00;;;10.70;99.90;;;;;;5120670;28;20043;-74
2022/03/17 10:32:03;;;;;;;0.00;0.00;;;10.80;99.90;;;;;;5118407;28;20032;-74
2022/03/17 10:34:32;;;;;;;0.00;0.00;;;11.00;99.90;;;;;;5120123;28;20011;-75
2022/03/17 10:37:25;;;;;;;0.00;0.00;;;11.10;99.90;;;;;;5119630;28;20036;-74
2022/03/17 10:39:55;;;;;;;0.52;0.15;;;11.20;99.90;;;;;;5115187;28;20040;-75
2022/03/17 10:42:25;;;;;;;1.55;0.57;;;11.30;99.90;;;;;;5118826;28;20317;-74
2022/03/17 10:44:53;;;;;;;0.00;0.00;;;11.30;99.90;;;;;;5101604;28;20051;-73
2022/03/17 10:47:35;;;;;;;0.40;0.40;;;11.30;99.90;;;;;;5119632;28;20020;-75
2022/03/17 10:50:18;;;;;;;0.05;0.00;;;11.50;99.90;;;;;;5120561;28;20027;-79
2022/03/17 10:52:58;;;;;;;0.00;0.00;;;11.50;96.80;;;;;;5117661;28;20012;-78
2022/03/17 10:55:29;;;;;;;0.00;0.00;;;11.60;92.90;;;;;;5098108;28;20077;-79
2022/03/17 10:58:00;;;;;;;0.75;0.50;;;11.70;97.00;;;;;;5098590;28;20039;-81
2022/03/17 11:00:28;;;;;;;0.82;0.45;;;11.60;93.40;;;;;;5098242;28;20339;-78
2022/03/17 11:02:57;;;;;;;0.20;0.20;;;11.80;93.90;;;;;;5097541;28;20043;-74
2022/03/17 11:05:23;;;;;;;;;;;11.90;92.30;;;;;;5097220;28;20039;-76
2022/03/17 11:07:51;;;;;;;0.22;0.22;;;12.10;95.20;;;;;;5097050;28;19907;-76
2022/03/17 11:10:19;;;;;;;0.00;0.00;;;12.30;94.60;;;;;;5095883;28;20015;-76
2022/03/17 11:12:45;;;;;;;0.13;0.10;;;12.50;92.90;;;;;;5098084;28;20238;-75
2022/03/17 11:15:12;;;;;;;0.10;0.10;;;13.00;93.50;;;;;;5091541;28;20023;-75
2022/03/17 11:17:43;;;;;;;0.13;0.10;;;13.40;93.80;;;;;;5097239;28;20026;-71
2022/03/17 11:20:12;;;;;;;0.00;0.00;;;13.70;94.60;;;;;;5094552;28;20023;-77
2022/03/17 11:22:39;;;;;;;0.45;0.45;;;13.90;91.10;;;;;;5097976;28;20047;-75
2022/03/17 11:25:32;;;;;;;0.00;0.00;;;14.00;84.80;;;;;;5079122;28;20024;-71
2022/03/17 11:28:00;;;;;;;0.00;0.00;;;14.20;90.50;;;;;;5088387;28;20376;-79
2022/03/17 11:30:57;;;;;;;0.10;0.10;;;14.20;86.60;;;;;;5089200;28;20478;-78
2022/03/17 11:33:27;;;;;;;0.00;0.00;;;14.30;83.70;;;;;;5096815;28;20300;-77
2022/03/17 11:35:55;;;;;;;0.20;0.15;;;14.40;79.70;;;;;;5097482;28;20069;-74
2022/03/17 11:38:27;;;;;;;0.38;0.17;;;14.30;68.60;;;;;;5096905;28;20055;-74
2022/03/17 11:41:10;;;;;;;0.00;0.00;;;14.30;74.60;;;;;;5095504;28;20024;-76
2022/03/17 11:43:46;;;;;;;0.00;0.00;;;14.30;75.20;;;;;;5095765;28;20054;-74
2022/03/17 11:46:19;;;;;;;0.10;0.10;;;14.30;81.90;;;;;;5096951;28;20035;-76
2022/03/17 11:48:47;;;;;;;0.00;0.00;;;14.50;79.60;;;;;;5095177;28;20093;-74
2022/03/17 11:51:14;;;;;;;;;;;14.50;76.90;;;;;;5098471;28;20019;-79
2022/03/17 11:53:48;;;;;;;0.00;0.00;;;14.40;72.70;;;;;;5099558;28;19908;-75
2022/03/17 11:56:43;;;;;;;0.38;0.13;;;14.30;76.10;;;;;;5116731;28;20073;-75
2022/03/17 11:59:09;;;;;;;0.75;0.75;;;14.30;71.50;;;;;;5086092;28;20035;-74
2022/03/17 12:01:44;;;;;;;0.20;0.20;;;14.30;71.80;;;;;;5123924;28;20031;-74
2022/03/17 12:04:32;;;;;;;0.00;0.00;;;14.30;73.10;;;;;;5122805;28;20042;-76
2022/03/17 12:07:19;;;;;;;0.00;0.00;;;14.30;74.30;;;;;;5105267;28;20035;-75
2022/03/17 12:09:45;;;;;;;0.00;0.00;;;14.40;77.60;;;;;;5122936;28;20019;-75
2022/03/17 12:12:20;;;;;;;0.15;0.10;;;14.50;74.40;;;;;;5122964;28;20035;-76
2022/03/17 12:14:52;;;;;;;0.00;0.00;;;14.50;73.80;;;;;;5121834;28;20019;-73
2022/03/17 12:17:19;;;;;;;0.00;0.00;;;14.50;74.90;;;;;;5123356;28;20094;-76
2022/03/17 12:19:51;;;;;;;0.00;0.00;;;14.40;72.30;;;;;;5123377;28;20031;-78
2022/03/17 12:22:17;;;;;;;0.10;0.00;;;14.40;73.70;;;;;;5104997;28;20023;-78
2022/03/17 12:24:58;;;;;;;0.17;0.17;;;14.30;72.00;;;;;;5123231;28;20016;-74
2022/03/17 12:27:43;;;;;;;0.40;0.40;;;14.20;71.80;;;;;;5103430;28;20110;-75
2022/03/17 12:30:15;;;;;;;0.00;0.00;;;14.00;74.40;;;;;;5106692;28;20023;-76
2022/03/17 12:32:48;;;;;;;0.00;0.00;;;14.00;70.40;;;;;;5122850;28;20086;-76
2022/03/17 12:35:14;;;;;;;0.00;0.00;;;13.80;62.30;;;;;;5122794;28;20023;-77
2022/03/17 12:37:42;;;;;;;0.55;0.43;;;13.70;65.40;;;;;;5122765;27;20015;-74
2022/03/17 12:40:16;;;;;;;0.80;0.30;;;13.70;71.50;;;;;;5121897;28;20032;-71
2022/03/17 12:42:44;;;;;;;0.00;0.00;;;13.60;64.40;;;;;;5104504;28;20180;-76
2022/03/17 12:45:22;;;;;;;0.00;0.00;;;13.60;62.70;;;;;;5103596;28;20019;-71
2022/03/17 12:47:58;;;;;;;0.00;0.00;;;13.50;61.80;;;;;;5117070;28;20038;-73
2022/03/17 12:50:28;;;;;;;0.00;0.00;;;13.50;69.00;;;;;;5102995;28;20084;-72
2022/03/17 12:52:53;;;;;;;0.00;0.00;;;13.40;64.80;;;;;;5121065;28;20023;-74
2022/03/17 12:55:21;;;;;;;0.00;0.00;;;13.30;67.20;;;;;;5120525;27;20290;-72
2022/03/17 12:57:47;;;;;;;0.80;0.10;;;13.20;58.00;;;;;;5107048;28;20020;-76
2022/03/17 13:00:15;;;;;;;0.00;0.00;;;13.20;61.20;;;;;;5120624;28;20382;-75
2022/03/17 13:03:00;;;;;;;0.00;0.00;;;13.10;62.90;;;;;;5121608;27;20026;-74
2022/03/17 13:08:15;;;;;;;0.00;0.00;;;13.00;61.40;;;;;;5118501;28;20056;-77
2022/03/17 13:16:11;;;;;;;0.00;0.00;;;12.70;57.80;;;;;;5120813;28;20092;-74
2022/03/17 13:18:47;;;;;;;0.00;0.00;;;12.70;61.30;;;;;;5122141;28;20027;-75
2022/03/17 13:21:15;;;;;;;0.00;0.00;;;12.70;64.80;;;;;;5121665;28;20026;-75
2022/03/17 13:23:41;;;;;;;0.00;0.00;;;12.70;64.40;;;;;;5121388;28;20302;-74